createdAt,value
2023-04-18T00:01:10.621Z,3.90
2023-04-18T00:03:39.026Z,3.40
2023-04-18T00:06:05.782Z,3.55
2023-04-18T00:08:33.438Z,4.13
2023-04-18T00:10:59.832Z,3.88
2023-04-18T00:13:28.331Z,3.92
2023-04-18T00:15:55.068Z,3.58
2023-04-18T00:18:21.916Z,3.90
2023-04-18T00:20:48.261Z,4.22
2023-04-18T00:23:14.757Z,4.10
2023-04-18T00:25:41.330Z,3.97
2023-04-18T00:28:07.792Z,4.78
2023-04-18T00:30:34.282Z,4.10
2023-04-18T00:33:00.885Z,4.60
2023-04-18T00:35:27.251Z,4.18
2023-04-18T00:37:53.600Z,4.13
2023-04-18T00:40:20.091Z,3.75
2023-04-18T00:42:46.433Z,3.88
2023-04-18T00:45:12.860Z,4.32
2023-04-18T00:47:39.338Z,4.75
2023-04-18T00:50:06.594Z,4.43
2023-04-18T00:52:35.684Z,3.97
2023-04-18T00:55:07.399Z,4.43
2023-04-18T00:57:34.266Z,4.07
2023-04-18T01:00:01.752Z,4.55
2023-04-18T01:02:30.404Z,4.03
2023-04-18T01:04:58.556Z,4.65
2023-04-18T01:07:26.467Z,4.47
2023-04-18T01:09:53.851Z,4.40
2023-04-18T01:12:20.336Z,4.50
2023-04-18T01:14:46.768Z,4.18
2023-04-18T01:17:13.286Z,4.50
2023-04-18T01:19:40.660Z,4.20
2023-04-18T01:22:08.317Z,5.00
2023-04-18T01:24:34.900Z,4.28
2023-04-18T01:27:02.701Z,5.07
2023-04-18T01:29:29.123Z,3.78
2023-04-18T01:31:55.693Z,4.68
2023-04-18T01:34:22.065Z,4.38
2023-04-18T01:36:48.748Z,5.18
2023-04-18T01:39:15.352Z,4.38
2023-04-18T01:41:42.027Z,4.28
2023-04-18T01:44:08.498Z,4.55
2023-04-18T01:46:35.900Z,4.90
2023-04-18T01:49:02.408Z,3.90
2023-04-18T01:51:28.802Z,4.05
2023-04-18T01:53:55.311Z,4.80
2023-04-18T01:56:21.673Z,4.18
2023-04-18T01:58:48.184Z,4.30
2023-04-18T02:01:14.577Z,4.60
2023-04-18T02:03:41.502Z,4.25
2023-04-18T02:06:08.339Z,4.80
2023-04-18T02:08:35.691Z,4.82
2023-04-18T02:11:02.233Z,4.90
2023-04-18T02:13:28.802Z,4.90
2023-04-18T02:15:55.326Z,3.92
2023-04-18T02:18:24.602Z,4.00
2023-04-18T02:20:52.110Z,4.10
2023-04-18T02:23:19.000Z,4.63
2023-04-18T02:25:45.715Z,4.60
2023-04-18T02:28:12.225Z,4.22
2023-04-18T02:30:38.658Z,4.32
2023-04-18T02:33:05.049Z,4.07
2023-04-18T02:35:31.689Z,4.15
2023-04-18T02:37:58.027Z,4.55
2023-04-18T02:40:24.433Z,4.22
2023-04-18T02:42:50.858Z,4.50
2023-04-18T02:45:17.375Z,4.72
2023-04-18T02:47:54.405Z,4.57
2023-04-18T02:50:22.867Z,4.95
2023-04-18T02:52:49.307Z,4.20
2023-04-18T02:55:16.058Z,5.00
2023-04-18T02:57:42.458Z,3.80
2023-04-18T03:00:09.310Z,4.00
2023-04-18T03:02:35.884Z,4.03
2023-04-18T03:05:02.694Z,4.60
2023-04-18T03:07:30.656Z,4.85
2023-04-18T03:09:57.051Z,3.83
2023-04-18T03:12:23.429Z,4.95
2023-04-18T03:14:49.790Z,4.20
2023-04-18T03:17:16.188Z,4.15
2023-04-18T03:19:42.583Z,4.38
2023-04-18T03:22:09.133Z,4.20
2023-04-18T03:24:35.559Z,4.35
2023-04-18T03:27:02.043Z,4.05
2023-04-18T03:29:28.392Z,4.25
2023-04-18T03:31:54.764Z,4.30
2023-04-18T03:34:21.138Z,4.70
2023-04-18T03:36:48.256Z,4.55
2023-04-18T03:39:14.810Z,4.80
2023-04-18T03:41:41.213Z,5.38
2023-04-18T03:44:07.596Z,4.20
2023-04-18T03:46:34.034Z,4.38
2023-04-18T03:49:00.723Z,4.93
2023-04-18T03:51:27.571Z,4.80
2023-04-18T03:53:53.927Z,4.80
2023-04-18T03:56:20.288Z,4.60
2023-04-18T03:58:46.694Z,5.95
2023-04-18T04:01:13.058Z,5.13
2023-04-18T04:03:39.680Z,5.03
2023-04-18T04:06:06.628Z,4.63
2023-04-18T04:08:33.799Z,5.07
2023-04-18T04:11:00.310Z,4.53
2023-04-18T04:13:26.700Z,4.85
2023-04-18T04:15:53.222Z,4.85
2023-04-18T04:18:20.162Z,6.05
2023-04-18T04:20:46.989Z,4.63
2023-04-18T04:23:13.360Z,4.85
2023-04-18T04:25:39.842Z,5.05
2023-04-18T04:28:06.706Z,4.53
2023-04-18T04:30:34.194Z,5.93
2023-04-18T04:33:01.663Z,5.18
2023-04-18T04:35:28.313Z,5.30
2023-04-18T04:37:54.683Z,5.03
2023-04-18T04:40:22.880Z,4.80
2023-04-18T04:42:53.841Z,5.00
2023-04-18T04:45:20.314Z,5.28
2023-04-18T04:47:46.929Z,4.88
2023-04-18T04:50:15.545Z,4.88
2023-04-18T04:52:42.539Z,4.90
2023-04-18T04:55:09.171Z,4.65
2023-04-18T04:57:35.785Z,4.85
2023-04-18T05:00:02.170Z,5.13
2023-04-18T05:02:28.672Z,4.82
2023-04-18T05:04:55.332Z,5.05
2023-04-18T05:07:21.808Z,4.93
2023-04-18T05:09:48.132Z,4.40
2023-04-18T05:12:14.487Z,4.65
2023-04-18T05:14:46.050Z,4.88
2023-04-18T05:17:13.121Z,3.65
2023-04-18T05:19:44.375Z,4.70
2023-04-18T05:24:38.932Z,4.65
2023-04-18T05:27:07.716Z,4.50
2023-04-18T05:29:34.222Z,5.10
2023-04-18T05:32:01.498Z,5.22
2023-04-18T05:34:27.849Z,5.03
2023-04-18T05:36:54.232Z,4.78
2023-04-18T05:39:20.561Z,4.57
2023-04-18T05:41:46.986Z,4.47
2023-04-18T05:44:13.358Z,4.13
2023-04-18T05:46:40.138Z,4.90
2023-04-18T05:49:06.573Z,4.30
2023-04-18T05:51:33.078Z,4.30
2023-04-18T05:53:59.646Z,4.30
2023-04-18T05:56:25.998Z,5.13
2023-04-18T05:58:52.385Z,5.70
2023-04-18T06:01:18.816Z,6.07
2023-04-18T06:03:45.378Z,4.30
2023-04-18T06:06:12.005Z,4.05
2023-04-18T06:08:39.095Z,3.90
2023-04-18T06:11:05.671Z,4.60
2023-04-18T06:13:32.481Z,4.10
2023-04-18T06:16:00.772Z,4.05
2023-04-18T06:18:27.232Z,3.83
2023-04-18T06:20:54.148Z,3.75
2023-04-18T06:23:20.568Z,4.20
2023-04-18T06:25:47.034Z,3.78
2023-04-18T06:28:13.390Z,3.67
2023-04-18T06:30:39.763Z,3.25
2023-04-18T06:33:10.249Z,3.40
2023-04-18T06:35:37.289Z,3.90
2023-04-18T06:38:03.958Z,3.08
2023-04-18T06:40:30.544Z,3.35
2023-04-18T06:42:57.010Z,3.42
2023-04-18T06:45:23.385Z,3.92
2023-04-18T06:47:51.250Z,3.78
2023-04-18T06:50:17.684Z,2.85
2023-04-18T06:52:45.464Z,3.40
2023-04-18T06:55:13.010Z,3.10
2023-04-18T06:57:43.126Z,3.03
2023-04-18T07:00:10.503Z,2.88
2023-04-18T07:02:38.245Z,2.53
2023-04-18T07:05:05.938Z,2.78
2023-04-18T07:07:33.006Z,2.90
2023-04-18T07:09:59.487Z,3.20
2023-04-18T07:12:25.891Z,2.97
2023-04-18T07:14:52.215Z,3.00
2023-04-18T07:17:18.611Z,4.13
2023-04-18T07:19:45.161Z,2.72
2023-04-18T07:22:11.836Z,2.45
2023-04-18T07:24:39.298Z,2.25
2023-04-18T07:27:06.702Z,2.42
2023-04-18T07:29:33.093Z,2.55
2023-04-18T07:31:59.468Z,2.72
2023-04-18T07:34:29.751Z,2.53
2023-04-18T07:36:59.851Z,2.93
2023-04-18T07:39:26.189Z,3.20
2023-04-18T07:41:52.641Z,2.88
2023-04-18T07:44:21.533Z,2.03
2023-04-18T07:46:48.016Z,2.53
2023-04-18T07:49:14.963Z,2.95
2023-04-18T07:51:41.572Z,2.67
2023-04-18T07:54:10.365Z,2.50
2023-04-18T07:56:36.949Z,1.75
2023-04-18T07:59:03.407Z,2.38
2023-04-18T08:01:29.830Z,2.53
2023-04-18T08:03:57.731Z,2.38
2023-04-18T08:06:24.292Z,2.20
2023-04-18T08:08:51.034Z,2.40
2023-04-18T08:11:17.386Z,2.13
2023-04-18T08:13:43.839Z,2.05
2023-04-18T08:16:10.300Z,2.08
2023-04-18T08:18:36.828Z,2.33
2023-04-18T08:21:03.413Z,2.10
2023-04-18T08:23:29.786Z,2.53
2023-04-18T08:25:56.146Z,2.35
2023-04-18T08:28:22.795Z,2.33
2023-04-18T08:30:50.289Z,2.97
2023-04-18T08:33:18.599Z,2.33
2023-04-18T08:35:45.095Z,1.98
2023-04-18T08:38:11.894Z,2.22
2023-04-18T08:40:38.513Z,1.42
2023-04-18T08:43:09.182Z,1.42
2023-04-18T08:45:36.739Z,1.52
2023-04-18T08:48:03.745Z,1.95
2023-04-18T08:50:30.658Z,1.63
2023-04-18T08:52:59.015Z,1.75
2023-04-18T08:55:25.399Z,1.70
2023-04-18T08:57:54.877Z,2.13
2023-04-18T09:00:22.507Z,1.75
2023-04-18T09:02:49.351Z,1.70
2023-04-18T09:05:24.162Z,1.60
2023-04-18T09:07:53.257Z,2.35
2023-04-18T09:10:32.457Z,2.13
2023-04-18T09:13:00.947Z,1.98
2023-04-18T09:15:29.139Z,2.22
2023-04-18T09:18:02.180Z,2.03
2023-04-18T09:20:40.979Z,1.83
2023-04-18T09:23:14.646Z,1.75
2023-04-18T09:25:43.265Z,2.25
2023-04-18T09:28:27.746Z,1.80
2023-04-18T09:30:56.071Z,2.13
2023-04-18T09:33:28.297Z,1.90
2023-04-18T09:35:55.691Z,1.80
2023-04-18T09:38:39.028Z,1.70
2023-04-18T09:41:10.019Z,1.63
2023-04-18T09:43:36.520Z,2.00
2023-04-18T09:46:04.246Z,1.90
2023-04-18T09:48:30.960Z,1.73
2023-04-18T09:51:01.227Z,1.73
2023-04-18T09:53:29.415Z,1.83
2023-04-18T09:55:57.776Z,1.90
2023-04-18T09:58:27.561Z,1.63
2023-04-18T10:00:54.383Z,1.90
2023-04-18T10:03:27.655Z,1.60
2023-04-18T10:05:57.684Z,1.73
2023-04-18T10:08:24.395Z,1.63
2023-04-18T10:10:50.888Z,1.63
2023-04-18T10:13:19.101Z,1.52
2023-04-18T10:15:45.604Z,2.03
2023-04-18T10:18:18.556Z,1.90
2023-04-18T10:20:46.847Z,1.65
2023-04-18T10:23:31.898Z,2.58
2023-04-18T10:25:59.226Z,1.88
2023-04-18T10:28:27.472Z,2.28
2023-04-18T10:31:03.518Z,2.08
2023-04-18T10:33:40.859Z,2.30
2023-04-18T10:36:08.624Z,1.80
2023-04-18T10:38:45.241Z,2.20
2023-04-18T10:41:29.470Z,2.78
2023-04-18T10:44:11.555Z,2.55
2023-04-18T10:46:40.442Z,2.00
2023-04-18T10:49:21.327Z,2.00
2023-04-18T10:51:51.449Z,2.42
2023-04-18T10:54:30.849Z,2.20
2023-04-18T10:56:59.667Z,2.58
2023-04-18T10:59:28.845Z,2.28
2023-04-18T11:02:30.020Z,2.33
2023-04-18T11:07:37.033Z,2.90
2023-04-18T11:10:05.666Z,3.08
2023-04-18T11:12:34.215Z,2.67
2023-04-18T11:15:09.351Z,2.63
2023-04-18T11:17:35.994Z,3.00
2023-04-18T11:20:09.059Z,2.45
2023-04-18T11:22:47.845Z,2.47
2023-04-18T11:25:16.239Z,2.70
2023-04-18T11:27:47.687Z,2.40
2023-04-18T11:30:15.252Z,3.67
2023-04-18T11:32:42.051Z,2.33
2023-04-18T11:35:10.331Z,2.30
2023-04-18T11:37:38.088Z,2.97
2023-04-18T11:40:07.524Z,2.88
2023-04-18T11:42:35.582Z,3.42
2023-04-18T11:45:02.332Z,2.47
2023-04-18T11:47:31.452Z,2.90
2023-04-18T11:50:06.563Z,3.10
2023-04-18T11:52:34.509Z,2.60
2023-04-18T11:55:13.940Z,3.22
2023-04-18T11:57:41.234Z,2.78
2023-04-18T12:00:09.409Z,2.78
2023-04-18T12:02:44.742Z,3.60
2023-04-18T12:05:15.061Z,3.83
2023-04-18T12:07:44.102Z,4.22
2023-04-18T12:10:19.834Z,3.38
2023-04-18T12:12:55.226Z,3.75
2023-04-18T12:15:28.093Z,4.53
2023-04-18T12:18:03.481Z,3.80
2023-04-18T12:20:50.051Z,3.60
2023-04-18T12:23:32.435Z,4.53
2023-04-18T12:26:03.639Z,4.00
2023-04-18T12:28:31.167Z,4.75
2023-04-18T12:30:58.140Z,4.97
2023-04-18T12:33:24.831Z,4.60
2023-04-18T12:35:52.844Z,5.05
2023-04-18T12:38:21.232Z,4.53
2023-04-18T12:40:47.788Z,4.55
2023-04-18T12:43:14.116Z,4.93
2023-04-18T12:45:40.678Z,5.32
2023-04-18T12:48:07.269Z,4.70
2023-04-18T12:50:34.043Z,4.40
2023-04-18T12:53:01.730Z,4.55
2023-04-18T12:55:28.977Z,5.30
2023-04-18T12:57:56.430Z,4.38
2023-04-18T13:00:25.446Z,4.95
2023-04-18T13:02:52.838Z,4.15
2023-04-18T13:05:21.129Z,5.97
2023-04-18T13:07:48.849Z,5.15
2023-04-18T13:10:20.371Z,5.07
2023-04-18T13:12:48.211Z,4.88
2023-04-18T13:15:15.930Z,5.50
2023-04-18T13:17:43.261Z,4.57
2023-04-18T13:20:12.331Z,4.85
2023-04-18T13:22:40.014Z,5.47
2023-04-18T13:25:10.320Z,5.50
2023-04-18T13:27:39.634Z,4.97
2023-04-18T13:30:10.323Z,4.25
2023-04-18T13:32:36.850Z,5.10
2023-04-18T13:35:03.557Z,4.85
2023-04-18T13:37:30.320Z,4.80
2023-04-18T13:39:57.286Z,5.47
2023-04-18T13:42:23.670Z,3.95
2023-04-18T13:44:50.295Z,4.85
2023-04-18T13:47:16.723Z,6.88
2023-04-18T13:49:43.106Z,6.75
2023-04-18T13:52:09.493Z,7.20
2023-04-18T13:54:37.235Z,5.85
2023-04-18T13:57:03.744Z,6.88
2023-04-18T13:59:31.990Z,6.05
2023-04-18T14:01:58.567Z,7.60
2023-04-18T14:04:25.548Z,7.57
2023-04-18T14:06:52.155Z,7.20
2023-04-18T14:09:18.592Z,7.30
2023-04-18T14:11:45.190Z,7.57
2023-04-18T14:14:11.706Z,7.82
2023-04-18T14:16:38.081Z,5.78
2023-04-18T14:19:04.789Z,6.75
2023-04-18T14:21:31.529Z,7.10
2023-04-18T14:23:58.007Z,7.72
2023-04-18T14:26:24.479Z,7.03
2023-04-18T14:28:51.054Z,7.13
2023-04-18T14:31:17.799Z,7.65
2023-04-18T14:33:44.710Z,7.10
2023-04-18T14:36:11.165Z,6.28
2023-04-18T14:38:37.548Z,6.80
2023-04-18T14:41:05.365Z,6.13
2023-04-18T14:43:32.182Z,6.20
2023-04-18T14:45:59.707Z,5.25
2023-04-18T14:48:27.053Z,6.13
2023-04-18T14:51:00.129Z,5.72
2023-04-18T14:53:27.003Z,6.40
2023-04-18T14:55:53.476Z,6.25
2023-04-18T14:58:20.236Z,6.60
2023-04-18T15:00:46.648Z,6.93
2023-04-18T15:03:13.466Z,7.25
2023-04-18T15:05:42.872Z,6.90
2023-04-18T15:08:11.306Z,6.10
2023-04-18T15:10:40.003Z,6.13
2023-04-18T15:13:06.439Z,3.75
2023-04-18T15:15:35.479Z,4.25
2023-04-18T15:18:02.653Z,4.07
2023-04-18T15:20:29.622Z,3.80
2023-04-18T15:22:56.758Z,3.50
2023-04-18T15:25:23.563Z,4.03
2023-04-18T15:27:50.294Z,4.10
2023-04-18T15:30:16.686Z,3.38
2023-04-18T15:32:44.059Z,4.30
2023-04-18T15:35:11.642Z,5.55
2023-04-18T15:37:38.130Z,5.68
2023-04-18T15:40:06.805Z,5.95
2023-04-18T15:42:33.941Z,5.72
2023-04-18T15:45:00.354Z,5.22
2023-04-18T15:47:27.053Z,5.38
2023-04-18T15:49:53.512Z,6.10
2023-04-18T15:52:20.035Z,5.70
2023-04-18T15:54:46.403Z,6.40
2023-04-18T15:57:12.804Z,5.68
2023-04-18T15:59:39.218Z,5.72
2023-04-18T16:02:08.661Z,6.00
2023-04-18T16:04:35.248Z,5.55
2023-04-18T16:07:01.657Z,5.63
2023-04-18T16:09:28.012Z,5.45
2023-04-18T16:11:54.444Z,5.22
2023-04-18T16:14:20.861Z,6.43
2023-04-18T16:16:47.549Z,4.80
2023-04-18T16:19:14.534Z,5.43
2023-04-18T16:21:40.984Z,5.38
2023-04-18T16:24:07.599Z,5.32
2023-04-18T16:26:34.039Z,5.40
2023-04-18T16:29:00.570Z,5.57
2023-04-18T16:31:26.969Z,5.60
2023-04-18T16:33:53.441Z,5.93
2023-04-18T16:36:19.873Z,5.35
2023-04-18T16:38:46.610Z,5.65
2023-04-18T16:41:13.021Z,5.22
2023-04-18T16:43:39.354Z,4.65
2023-04-18T16:46:05.972Z,5.03
2023-04-18T16:48:32.416Z,4.93
2023-04-18T16:50:58.864Z,4.55
2023-04-18T16:53:25.897Z,4.47
2023-04-18T16:55:53.078Z,4.57
2023-04-18T16:58:20.061Z,4.32
2023-04-18T17:00:47.210Z,4.20
2023-04-18T17:03:14.080Z,4.90
2023-04-18T17:05:40.991Z,4.43
2023-04-18T17:08:07.548Z,4.50
2023-04-18T17:10:34.337Z,4.50
2023-04-18T17:13:02.261Z,4.60
2023-04-18T17:15:28.757Z,4.03
2023-04-18T17:17:56.611Z,4.35
2023-04-18T17:20:24.360Z,4.68
2023-04-18T17:22:51.048Z,4.53
2023-04-18T17:25:17.621Z,4.10
2023-04-18T17:27:44.224Z,5.00
2023-04-18T17:30:11.035Z,4.72
2023-04-18T17:32:42.727Z,4.80
2023-04-18T17:35:09.686Z,4.00
2023-04-18T17:37:36.419Z,4.30
2023-04-18T17:40:06.414Z,4.50
2023-04-18T17:42:32.980Z,4.63
2023-04-18T17:45:01.985Z,4.38
2023-04-18T17:47:28.535Z,4.68
2023-04-18T17:49:54.950Z,4.30
2023-04-18T17:52:21.816Z,4.30
2023-04-18T17:54:48.476Z,5.15
2023-04-18T17:57:14.941Z,5.07
2023-04-18T17:59:41.281Z,5.07
2023-04-18T18:02:08.035Z,4.55
2023-04-18T18:04:34.627Z,4.70
2023-04-18T18:07:01.188Z,4.30
2023-04-18T18:09:27.538Z,4.93
2023-04-18T18:11:55.954Z,4.47
2023-04-18T18:14:22.994Z,4.30
2023-04-18T18:16:49.461Z,4.28
2023-04-18T18:19:16.478Z,3.83
2023-04-18T18:21:43.037Z,4.32
2023-04-18T18:24:09.595Z,4.63
2023-04-18T18:26:36.181Z,4.45
2023-04-18T18:29:09.032Z,4.80
2023-04-18T18:31:35.881Z,4.30
2023-04-18T18:34:02.414Z,4.43
2023-04-18T18:36:28.793Z,4.25
2023-04-18T18:38:55.353Z,3.13
2023-04-18T18:41:24.699Z,3.22
2023-04-18T18:43:51.570Z,4.18
2023-04-18T18:46:18.506Z,4.18
2023-04-18T18:48:44.962Z,4.10
2023-04-18T18:51:11.656Z,4.10
2023-04-18T18:53:40.280Z,4.03
2023-04-18T18:56:08.654Z,3.83
2023-04-18T18:58:35.829Z,3.90
2023-04-18T19:01:03.234Z,3.55
2023-04-18T19:03:29.946Z,3.63
2023-04-18T19:05:56.602Z,3.70
2023-04-18T19:08:23.274Z,4.15
2023-04-18T19:10:50.511Z,4.30
2023-04-18T19:13:18.935Z,3.50
2023-04-18T19:15:45.350Z,4.10
2023-04-18T19:18:12.338Z,4.00
2023-04-18T19:20:40.311Z,3.85
2023-04-18T19:23:06.735Z,4.03
2023-04-18T19:25:33.239Z,3.63
2023-04-18T19:27:59.586Z,3.88
2023-04-18T19:30:26.023Z,4.30
2023-04-18T19:32:52.528Z,4.15
2023-04-18T19:35:18.962Z,3.90
2023-04-18T19:37:45.382Z,4.30
2023-04-18T19:40:12.153Z,4.03
2023-04-18T19:42:38.526Z,4.30
2023-04-18T19:45:05.569Z,4.28
2023-04-18T19:47:33.823Z,4.30
2023-04-18T19:50:01.245Z,4.47
2023-04-18T19:52:27.640Z,3.90
2023-04-18T19:54:55.166Z,4.18
2023-04-18T19:57:21.892Z,3.80
2023-04-18T19:59:48.306Z,3.85
2023-04-18T20:02:15.098Z,3.63
2023-04-18T20:04:42.125Z,4.15
2023-04-18T20:07:08.691Z,3.78
2023-04-18T20:09:35.042Z,3.75
2023-04-18T20:12:01.983Z,4.43
2023-04-18T20:14:29.159Z,4.10
2023-04-18T20:16:56.516Z,3.90
2023-04-18T20:19:26.658Z,4.25
2023-04-18T20:21:53.091Z,4.22
2023-04-18T20:24:21.073Z,4.25
2023-04-18T20:26:47.766Z,4.10
2023-04-18T20:29:14.315Z,3.80
2023-04-18T20:31:42.294Z,5.20
2023-04-18T20:34:09.792Z,3.97
2023-04-18T20:36:41.276Z,3.90
2023-04-18T20:39:12.730Z,4.45
2023-04-18T20:41:50.614Z,4.32
2023-04-18T20:44:20.799Z,4.55
2023-04-18T20:46:47.175Z,4.50
2023-04-18T20:49:13.652Z,4.35
2023-04-18T20:51:40.297Z,4.20
2023-04-18T20:54:07.031Z,4.32
2023-04-18T20:56:33.764Z,4.70
2023-04-18T20:59:00.249Z,4.25
2023-04-18T21:01:26.617Z,4.80
2023-04-18T21:03:53.320Z,4.05
2023-04-18T21:06:21.880Z,4.28
2023-04-18T21:08:48.803Z,4.65
2023-04-18T21:11:15.264Z,4.18
2023-04-18T21:13:41.594Z,4.40
2023-04-18T21:16:10.050Z,4.57
2023-04-18T21:18:37.059Z,4.47
2023-04-18T21:21:03.983Z,4.35
2023-04-18T21:23:30.429Z,4.28
2023-04-18T21:25:56.832Z,4.80
2023-04-18T21:28:23.270Z,4.40
2023-04-18T21:30:49.653Z,4.18
2023-04-18T21:33:16.591Z,4.25
2023-04-18T21:35:42.959Z,4.90
2023-04-18T21:38:09.428Z,4.45
2023-04-18T21:40:37.121Z,4.90
2023-04-18T21:43:03.537Z,4.97
2023-04-18T21:45:29.949Z,5.07
2023-04-18T21:47:56.346Z,4.60
2023-04-18T21:50:22.890Z,4.72
2023-04-18T21:52:49.326Z,4.38
2023-04-18T21:55:15.673Z,5.15
2023-04-18T21:57:42.022Z,5.25
2023-04-18T22:00:10.649Z,4.60
2023-04-18T22:02:37.340Z,4.40
2023-04-18T22:05:03.996Z,5.15
2023-04-18T22:07:30.973Z,4.38
2023-04-18T22:09:59.554Z,4.32
2023-04-18T22:12:26.247Z,4.38
2023-04-18T22:14:52.774Z,4.90
2023-04-18T22:17:19.235Z,5.63
2023-04-18T22:19:47.146Z,5.20
2023-04-18T22:22:13.555Z,4.78
2023-04-18T22:24:39.937Z,4.85
2023-04-18T22:27:06.332Z,5.38
2023-04-18T22:29:32.951Z,5.20
2023-04-18T22:31:59.303Z,4.97
2023-04-18T22:34:25.752Z,4.85
2023-04-18T22:36:52.100Z,5.05
2023-04-18T22:39:18.505Z,5.18
2023-04-18T22:41:44.878Z,5.35
2023-04-18T22:44:11.262Z,5.57
2023-04-18T22:46:39.261Z,5.18
2023-04-18T22:49:06.148Z,5.15
2023-04-18T22:51:32.521Z,4.80
2023-04-18T22:53:58.864Z,4.82
2023-04-18T22:56:25.390Z,4.95
2023-04-18T22:58:51.797Z,4.90
2023-04-18T23:01:18.484Z,4.75
2023-04-18T23:03:45.491Z,5.45
2023-04-18T23:06:12.046Z,4.50
2023-04-18T23:08:38.426Z,4.25
2023-04-18T23:11:04.793Z,4.40
2023-04-18T23:13:31.143Z,4.65
2023-04-18T23:15:57.622Z,4.78
2023-04-18T23:18:24.047Z,4.65
2023-04-18T23:20:50.667Z,4.93
2023-04-18T23:23:17.032Z,4.72
2023-04-18T23:25:44.043Z,4.50
2023-04-18T23:28:10.565Z,4.78
2023-04-18T23:30:37.185Z,4.63
2023-04-18T23:33:03.758Z,4.75
2023-04-18T23:35:30.319Z,4.65
2023-04-18T23:37:57.060Z,4.80
2023-04-18T23:40:23.579Z,4.50
2023-04-18T23:42:50.073Z,4.45
2023-04-18T23:45:16.575Z,4.65
2023-04-18T23:47:42.981Z,4.60
2023-04-18T23:50:09.820Z,4.85
2023-04-18T23:52:38.033Z,5.05
2023-04-18T23:55:04.755Z,4.72
2023-04-18T23:57:31.195Z,4.70
2023-04-18T23:59:57.653Z,4.68
